sensor_id;sensor_type;location;lat;lon;timestamp;pressure;altitude;pressure_sealevel;temperature;humidity
32081;BME280;18593;51.426;7.030;2023-05-24T00:01:56;101326.94;;;12.70;48.76
32081;BME280;18593;51.426;7.030;2023-05-24T00:04:23;101315.00;;;12.66;48.92
32081;BME280;18593;51.426;7.030;2023-05-24T00:06:54;101322.38;;;12.63;49.14
32081;BME280;18593;51.426;7.030;2023-05-24T00:09:24;101324.44;;;12.61;49.27
32081;BME280;18593;51.426;7.030;2023-05-24T00:11:52;101324.66;;;12.60;49.31
32081;BME280;18593;51.426;7.030;2023-05-24T00:14:19;101319.09;;;12.55;49.44
32081;BME280;18593;51.426;7.030;2023-05-24T00:16:46;101319.91;;;12.55;49.68
32081;BME280;18593;51.426;7.030;2023-05-24T00:19:14;101325.66;;;12.52;49.32
32081;BME280;18593;51.426;7.030;2023-05-24T00:21:43;101322.38;;;12.50;49.84
32081;BME280;18593;51.426;7.030;2023-05-24T00:24:11;101313.72;;;12.48;49.73
32081;BME280;18593;51.426;7.030;2023-05-24T00:26:40;101310.84;;;12.50;50.09
32081;BME280;18593;51.426;7.030;2023-05-24T00:29:07;101305.06;;;12.46;50.03
32081;BME280;18593;51.426;7.030;2023-05-24T00:31:35;101293.94;;;12.43;49.93
32081;BME280;18593;51.426;7.030;2023-05-24T00:34:03;101305.91;;;12.40;50.34
32081;BME280;18593;51.426;7.030;2023-05-24T00:36:30;101306.06;;;12.38;50.31
32081;BME280;18593;51.426;7.030;2023-05-24T00:38:58;101300.13;;;12.36;49.86
32081;BME280;18593;51.426;7.030;2023-05-24T00:41:25;101297.66;;;12.35;50.46
32081;BME280;18593;51.426;7.030;2023-05-24T00:43:54;101297.22;;;12.31;50.49
32081;BME280;18593;51.426;7.030;2023-05-24T00:46:27;101303.41;;;12.32;50.48
32081;BME280;18593;51.426;7.030;2023-05-24T00:48:56;101305.25;;;12.31;50.55
32081;BME280;18593;51.426;7.030;2023-05-24T00:51:27;101298.66;;;12.27;50.65
32081;BME280;18593;51.426;7.030;2023-05-24T00:53:55;101302.34;;;12.26;50.88
32081;BME280;18593;51.426;7.030;2023-05-24T00:56:23;101302.75;;;12.23;51.21
32081;BME280;18593;51.426;7.030;2023-05-24T00:58:51;101292.47;;;12.20;51.13
32081;BME280;18593;51.426;7.030;2023-05-24T01:01:23;101297.19;;;12.18;51.14
32081;BME280;18593;51.426;7.030;2023-05-24T01:03:51;101291.00;;;12.11;51.29
32081;BME280;18593;51.426;7.030;2023-05-24T01:06:19;101288.50;;;12.09;51.49
32081;BME280;18593;51.426;7.030;2023-05-24T01:09:06;101291.78;;;12.05;51.43
32081;BME280;18593;51.426;7.030;2023-05-24T01:11:49;101292.22;;;12.02;51.74
32081;BME280;18593;51.426;7.030;2023-05-24T01:14:26;101284.78;;;11.97;51.93
32081;BME280;18593;51.426;7.030;2023-05-24T01:17:05;101283.13;;;11.96;51.64
32081;BME280;18593;51.426;7.030;2023-05-24T01:19:57;101288.06;;;11.93;52.02
32081;BME280;18593;51.426;7.030;2023-05-24T01:23:17;101280.63;;;11.88;52.02
32081;BME280;18593;51.426;7.030;2023-05-24T01:26:25;101283.25;;;11.81;52.17
32081;BME280;18593;51.426;7.030;2023-05-24T01:28:59;101283.84;;;11.77;52.36
32081;BME280;18593;51.426;7.030;2023-05-24T01:31:28;101281.34;;;11.75;52.40
32081;BME280;18593;51.426;7.030;2023-05-24T01:33:56;101278.06;;;11.73;52.53
32081;BME280;18593;51.426;7.030;2023-05-24T01:36:26;101277.84;;;11.68;52.66
32081;BME280;18593;51.426;7.030;2023-05-24T01:38:53;101271.84;;;11.66;52.76
32081;BME280;18593;51.426;7.030;2023-05-24T01:41:33;101282.31;;;11.61;52.88
32081;BME280;18593;51.426;7.030;2023-05-24T01:44:12;101281.69;;;11.59;52.85
32081;BME280;18593;51.426;7.030;2023-05-24T01:46:45;101282.09;;;11.56;52.91
32081;BME280;18593;51.426;7.030;2023-05-24T01:49:25;101277.16;;;11.53;52.77
32081;BME280;18593;51.426;7.030;2023-05-24T01:52:02;101272.84;;;11.52;53.09
32081;BME280;18593;51.426;7.030;2023-05-24T01:54:32;101258.03;;;11.49;53.04
32081;BME280;18593;51.426;7.030;2023-05-24T01:57:06;101260.69;;;11.49;53.05
32081;BME280;18593;51.426;7.030;2023-05-24T01:59:40;101260.91;;;11.48;53.28
32081;BME280;18593;51.426;7.030;2023-05-24T02:02:09;101265.59;;;11.46;53.48
32081;BME280;18593;51.426;7.030;2023-05-24T02:04:37;101264.97;;;11.44;53.54
32081;BME280;18593;51.426;7.030;2023-05-24T02:07:06;101265.19;;;11.42;53.62
32081;BME280;18593;51.426;7.030;2023-05-24T02:09:33;101248.72;;;11.39;53.63
32081;BME280;18593;51.426;7.030;2023-05-24T02:12:01;101255.91;;;11.38;53.57
32081;BME280;18593;51.426;7.030;2023-05-24T02:14:28;101250.75;;;11.37;53.51
32081;BME280;18593;51.426;7.030;2023-05-24T02:16:57;101249.94;;;11.36;53.79
32081;BME280;18593;51.426;7.030;2023-05-24T02:19:25;101256.28;;;11.35;53.88
32081;BME280;18593;51.426;7.030;2023-05-24T02:21:53;101258.34;;;11.33;53.80
32081;BME280;18593;51.426;7.030;2023-05-24T02:24:20;101250.94;;;11.28;54.02
32081;BME280;18593;51.426;7.030;2023-05-24T02:26:47;101260.13;;;11.26;53.88
32081;BME280;18593;51.426;7.030;2023-05-24T02:29:15;101270.66;;;11.27;54.08
32081;BME280;18593;51.426;7.030;2023-05-24T02:31:43;101271.63;;;11.26;54.09
32081;BME280;18593;51.426;7.030;2023-05-24T02:34:11;101262.19;;;11.24;54.00
32081;BME280;18593;51.426;7.030;2023-05-24T02:36:38;101261.97;;;11.19;54.14
32081;BME280;18593;51.426;7.030;2023-05-24T02:39:06;101273.66;;;11.18;54.25
32081;BME280;18593;51.426;7.030;2023-05-24T02:41:33;101278.16;;;11.17;54.49
32081;BME280;18593;51.426;7.030;2023-05-24T02:44:00;101277.75;;;11.14;54.43
32081;BME280;18593;51.426;7.030;2023-05-24T02:46:28;101280.78;;;11.11;54.36
32081;BME280;18593;51.426;7.030;2023-05-24T02:48:55;101280.16;;;11.08;54.51
32081;BME280;18593;51.426;7.030;2023-05-24T02:51:24;101278.69;;;11.06;54.69
32081;BME280;18593;51.426;7.030;2023-05-24T02:53:51;101275.59;;;11.02;54.76
32081;BME280;18593;51.426;7.030;2023-05-24T02:56:18;101269.84;;;10.99;55.12
32081;BME280;18593;51.426;7.030;2023-05-24T02:58:46;101272.66;;;10.97;55.07
32081;BME280;18593;51.426;7.030;2023-05-24T03:01:14;101276.38;;;10.96;55.14
32081;BME280;18593;51.426;7.030;2023-05-24T03:03:41;101272.25;;;10.94;55.24
32081;BME280;18593;51.426;7.030;2023-05-24T03:06:09;101265.25;;;10.93;55.33
32081;BME280;18593;51.426;7.030;2023-05-24T03:08:40;101267.91;;;10.93;55.30
32081;BME280;18593;51.426;7.030;2023-05-24T03:11:08;101268.13;;;10.91;55.22
32081;BME280;18593;51.426;7.030;2023-05-24T03:13:35;101272.63;;;10.91;55.46
32081;BME280;18593;51.426;7.030;2023-05-24T03:16:02;101275.09;;;10.92;55.69
32081;BME280;18593;51.426;7.030;2023-05-24T03:18:30;101268.94;;;10.92;55.64
32081;BME280;18593;51.426;7.030;2023-05-24T03:20:57;101269.75;;;10.92;55.58
32081;BME280;18593;51.426;7.030;2023-05-24T03:23:26;101267.91;;;10.93;55.69
32081;BME280;18593;51.426;7.030;2023-05-24T03:25:58;101266.91;;;10.94;55.67
32081;BME280;18593;51.426;7.030;2023-05-24T03:28:25;101255.41;;;10.93;55.79
32081;BME280;18593;51.426;7.030;2023-05-24T03:30:53;101267.91;;;10.93;55.91
32081;BME280;18593;51.426;7.030;2023-05-24T03:33:21;101259.28;;;10.91;55.87
32081;BME280;18593;51.426;7.030;2023-05-24T03:35:53;101260.94;;;10.92;56.09
32081;BME280;18593;51.426;7.030;2023-05-24T03:38:23;101255.59;;;10.92;55.97
32081;BME280;18593;51.426;7.030;2023-05-24T03:40:50;101266.09;;;10.93;56.07
32081;BME280;18593;51.426;7.030;2023-05-24T03:43:19;101263.22;;;10.95;56.17
32081;BME280;18593;51.426;7.030;2023-05-24T03:45:51;101266.09;;;10.93;56.21
32081;BME280;18593;51.426;7.030;2023-05-24T03:48:19;101266.91;;;10.94;56.29
32081;BME280;18593;51.426;7.030;2023-05-24T03:50:46;101273.91;;;10.95;56.44
32081;BME280;18593;51.426;7.030;2023-05-24T03:53:14;101271.22;;;10.95;56.46
32081;BME280;18593;51.426;7.030;2023-05-24T03:55:44;101271.22;;;10.95;56.46
32081;BME280;18593;51.426;7.030;2023-05-24T03:58:12;101280.88;;;10.96;56.50
32081;BME280;18593;51.426;7.030;2023-05-24T04:00:41;101285.19;;;10.97;56.55
32081;BME280;18593;51.426;7.030;2023-05-24T04:03:08;101282.53;;;10.97;56.62
32081;BME280;18593;51.426;7.030;2023-05-24T04:05:38;101284.16;;;10.98;56.80
32081;BME280;18593;51.426;7.030;2023-05-24T04:08:18;101290.16;;;11.00;56.95
32081;BME280;18593;51.426;7.030;2023-05-24T04:10:45;101294.47;;;11.01;57.16
32081;BME280;18593;51.426;7.030;2023-05-24T04:13:13;101293.84;;;10.99;57.31
32081;BME280;18593;51.426;7.030;2023-05-24T04:15:45;101299.00;;;11.00;57.42
32081;BME280;18593;51.426;7.030;2023-05-24T04:18:13;101290.78;;;11.02;57.49
32081;BME280;18593;51.426;7.030;2023-05-24T04:20:40;101294.09;;;11.04;57.74
32081;BME280;18593;51.426;7.030;2023-05-24T04:23:08;101292.88;;;11.06;57.74
32081;BME280;18593;51.426;7.030;2023-05-24T04:25:43;101296.19;;;11.08;58.09
32081;BME280;18593;51.426;7.030;2023-05-24T04:28:10;101294.13;;;11.11;57.98
32081;BME280;18593;51.426;7.030;2023-05-24T04:30:38;101293.75;;;11.14;57.99
32081;BME280;18593;51.426;7.030;2023-05-24T04:33:07;101289.03;;;11.16;58.42
32081;BME280;18593;51.426;7.030;2023-05-24T04:35:35;101290.50;;;11.18;58.53
32081;BME280;18593;51.426;7.030;2023-05-24T04:38:03;101298.09;;;11.21;58.64
32081;BME280;18593;51.426;7.030;2023-05-24T04:40:30;101287.25;;;11.23;58.75
32081;BME280;18593;51.426;7.030;2023-05-24T04:42:58;101291.81;;;11.29;58.36
32081;BME280;18593;51.426;7.030;2023-05-24T04:45:25;101298.00;;;11.36;58.07
32081;BME280;18593;51.426;7.030;2023-05-24T04:47:53;101295.38;;;11.43;57.79
32081;BME280;18593;51.426;7.030;2023-05-24T04:50:21;101299.72;;;11.50;58.22
32081;BME280;18593;51.426;7.030;2023-05-24T04:52:49;101306.34;;;11.54;58.08
32081;BME280;18593;51.426;7.030;2023-05-24T04:55:16;101307.38;;;11.53;57.96
32081;BME280;18593;51.426;7.030;2023-05-24T04:57:44;101306.72;;;11.51;58.47
32081;BME280;18593;51.426;7.030;2023-05-24T05:00:12;101309.59;;;11.50;58.29
32081;BME280;18593;51.426;7.030;2023-05-24T05:02:40;101311.88;;;11.53;58.30
32081;BME280;18593;51.426;7.030;2023-05-24T05:05:07;101305.50;;;11.54;58.28
32081;BME280;18593;51.426;7.030;2023-05-24T05:07:36;101313.75;;;11.59;58.36
32081;BME280;18593;51.426;7.030;2023-05-24T05:10:05;101317.91;;;11.62;58.37
32081;BME280;18593;51.426;7.030;2023-05-24T05:12:32;101310.50;;;11.64;58.44
32081;BME280;18593;51.426;7.030;2023-05-24T05:14:59;101310.72;;;11.69;58.90
32081;BME280;18593;51.426;7.030;2023-05-24T05:17:27;101316.31;;;11.74;59.07
32081;BME280;18593;51.426;7.030;2023-05-24T05:19:54;101314.50;;;11.81;58.81
32081;BME280;18593;51.426;7.030;2023-05-24T05:22:21;101311.88;;;11.88;58.91
32081;BME280;18593;51.426;7.030;2023-05-24T05:24:51;101308.25;;;12.02;58.62
32081;BME280;18593;51.426;7.030;2023-05-24T05:27:18;101313.22;;;12.11;58.19
32081;BME280;18593;51.426;7.030;2023-05-24T05:29:45;101313.66;;;12.22;58.14
32081;BME280;18593;51.426;7.030;2023-05-24T05:32:14;101309.78;;;12.37;58.27
32081;BME280;18593;51.426;7.030;2023-05-24T05:34:41;101318.47;;;12.46;58.47
32081;BME280;18593;51.426;7.030;2023-05-24T05:37:08;101315.59;;;12.61;58.53
32081;BME280;18593;51.426;7.030;2023-05-24T05:39:35;101315.59;;;12.68;58.00
32081;BME280;18593;51.426;7.030;2023-05-24T05:42:05;101313.16;;;12.86;58.09
32081;BME280;18593;51.426;7.030;2023-05-24T05:44:32;101310.25;;;13.01;57.33
32081;BME280;18593;51.426;7.030;2023-05-24T05:47:02;101303.66;;;13.17;56.80
32081;BME280;18593;51.426;7.030;2023-05-24T05:49:32;101300.59;;;13.26;56.26
32081;BME280;18593;51.426;7.030;2023-05-24T05:52:01;101291.53;;;13.34;56.38
32081;BME280;18593;51.426;7.030;2023-05-24T05:54:28;101302.00;;;13.49;57.15
32081;BME280;18593;51.426;7.030;2023-05-24T05:56:56;101296.38;;;13.63;56.06
32081;BME280;18593;51.426;7.030;2023-05-24T05:59:25;101295.72;;;13.75;55.66
32081;BME280;18593;51.426;7.030;2023-05-24T06:01:52;101299.19;;;13.88;55.45
32081;BME280;18593;51.426;7.030;2023-05-24T06:04:20;101305.75;;;13.99;54.42
32081;BME280;18593;51.426;7.030;2023-05-24T06:06:47;101311.91;;;14.00;54.00
32081;BME280;18593;51.426;7.030;2023-05-24T06:09:15;101318.97;;;14.01;53.53
32081;BME280;18593;51.426;7.030;2023-05-24T06:11:42;101317.69;;;14.03;54.07
32081;BME280;18593;51.426;7.030;2023-05-24T06:14:10;101324.91;;;14.03;53.27
32081;BME280;18593;51.426;7.030;2023-05-24T06:16:39;101319.38;;;13.98;53.20
32081;BME280;18593;51.426;7.030;2023-05-24T06:19:08;101309.69;;;13.97;54.08
32081;BME280;18593;51.426;7.030;2023-05-24T06:21:35;101308.00;;;13.96;54.05
32081;BME280;18593;51.426;7.030;2023-05-24T06:24:03;101317.31;;;13.93;53.80
32081;BME280;18593;51.426;7.030;2023-05-24T06:26:30;101314.03;;;13.91;54.00
32081;BME280;18593;51.426;7.030;2023-05-24T06:28:57;101307.00;;;13.90;53.55
32081;BME280;18593;51.426;7.030;2023-05-24T06:31:24;101316.31;;;13.87;54.32
32081;BME280;18593;51.426;7.030;2023-05-24T06:33:53;101309.31;;;13.86;53.86
32081;BME280;18593;51.426;7.030;2023-05-24T06:36:20;101312.41;;;13.83;53.42
32081;BME280;18593;51.426;7.030;2023-05-24T06:38:47;101318.00;;;13.82;53.57
32081;BME280;18593;51.426;7.030;2023-05-24T06:41:15;101325.22;;;13.81;53.80
32081;BME280;18593;51.426;7.030;2023-05-24T06:43:42;101329.72;;;13.81;54.07
32081;BME280;18593;51.426;7.030;2023-05-24T06:46:11;101332.41;;;13.81;54.68
32081;BME280;18593;51.426;7.030;2023-05-24T06:48:38;101332.03;;;13.77;53.78
32081;BME280;18593;51.426;7.030;2023-05-24T06:51:07;101333.88;;;13.77;54.16
32081;BME280;18593;51.426;7.030;2023-05-24T06:53:34;101340.25;;;13.76;53.75
32081;BME280;18593;51.426;7.030;2023-05-24T06:56:01;101325.22;;;13.75;53.11
32081;BME280;18593;51.426;7.030;2023-05-24T06:58:28;101328.13;;;13.73;53.22
32081;BME280;18593;51.426;7.030;2023-05-24T07:00:56;101322.34;;;13.76;54.09
32081;BME280;18593;51.426;7.030;2023-05-24T07:03:23;101324.19;;;13.82;54.57
32081;BME280;18593;51.426;7.030;2023-05-24T07:05:50;101318.34;;;13.99;53.82
32081;BME280;18593;51.426;7.030;2023-05-24T07:08:19;101323.41;;;14.13;53.66
32081;BME280;18593;51.426;7.030;2023-05-24T07:10:46;101321.28;;;14.29;52.54
32081;BME280;18593;51.426;7.030;2023-05-24T07:13:13;101327.81;;;14.46;52.63
32081;BME280;18593;51.426;7.030;2023-05-24T07:15:41;101322.97;;;14.61;52.98
32081;BME280;18593;51.426;7.030;2023-05-24T07:18:09;101320.69;;;14.65;52.39
32081;BME280;18593;51.426;7.030;2023-05-24T07:20:36;101329.75;;;14.64;51.74
32081;BME280;18593;51.426;7.030;2023-05-24T07:23:03;101332.25;;;14.65;51.25
32081;BME280;18593;51.426;7.030;2023-05-24T07:25:33;101337.41;;;14.67;51.72
32081;BME280;18593;51.426;7.030;2023-05-24T07:28:00;101329.56;;;14.65;51.70
32081;BME280;18593;51.426;7.030;2023-05-24T07:30:27;101323.97;;;14.67;50.85
32081;BME280;18593;51.426;7.030;2023-05-24T07:32:55;101333.47;;;14.70;50.65
32081;BME280;18593;51.426;7.030;2023-05-24T07:35:22;101332.38;;;14.77;50.27
32081;BME280;18593;51.426;7.030;2023-05-24T07:37:50;101321.03;;;14.75;49.62
32081;BME280;18593;51.426;7.030;2023-05-24T07:40:17;101320.22;;;14.75;50.77
32081;BME280;18593;51.426;7.030;2023-05-24T07:42:46;101324.38;;;14.71;50.76
32081;BME280;18593;51.426;7.030;2023-05-24T07:45:15;101319.81;;;14.71;50.43
32081;BME280;18593;51.426;7.030;2023-05-24T07:47:43;101327.78;;;14.84;49.97
32081;BME280;18593;51.426;7.030;2023-05-24T07:50:11;101320.72;;;14.90;49.88
32081;BME280;18593;51.426;7.030;2023-05-24T07:52:38;101333.31;;;14.89;48.93
32081;BME280;18593;51.426;7.030;2023-05-24T07:55:06;101331.41;;;14.97;48.54
32081;BME280;18593;51.426;7.030;2023-05-24T07:57:33;101331.88;;;15.12;48.67
32081;BME280;18593;51.426;7.030;2023-05-24T08:00:02;101337.16;;;15.25;47.20
32081;BME280;18593;51.426;7.030;2023-05-24T08:02:37;101334.03;;;15.28;47.19
32081;BME280;18593;51.426;7.030;2023-05-24T08:05:05;101326.72;;;15.35;47.08
32081;BME280;18593;51.426;7.030;2023-05-24T08:07:35;101331.19;;;15.41;47.34
32081;BME280;18593;51.426;7.030;2023-05-24T08:10:02;101323.38;;;15.40;48.33
32081;BME280;18593;51.426;7.030;2023-05-24T08:12:29;101327.91;;;15.39;48.17
32081;BME280;18593;51.426;7.030;2023-05-24T08:14:57;101332.09;;;15.35;47.14
32081;BME280;18593;51.426;7.030;2023-05-24T08:17:26;101325.50;;;15.31;48.64
32081;BME280;18593;51.426;7.030;2023-05-24T08:19:53;101332.00;;;15.42;49.16
32081;BME280;18593;51.426;7.030;2023-05-24T08:22:20;101325.94;;;15.53;47.77
32081;BME280;18593;51.426;7.030;2023-05-24T08:24:48;101329.28;;;15.49;47.32
32081;BME280;18593;51.426;7.030;2023-05-24T08:27:15;101330.19;;;15.42;47.64
32081;BME280;18593;51.426;7.030;2023-05-24T08:32:17;101324.69;;;15.31;47.28
32081;BME280;18593;51.426;7.030;2023-05-24T08:34:45;101328.50;;;15.23;47.35
32081;BME280;18593;51.426;7.030;2023-05-24T08:37:12;101332.28;;;15.15;47.72
32081;BME280;18593;51.426;7.030;2023-05-24T08:39:40;101329.19;;;15.12;47.19
32081;BME280;18593;51.426;7.030;2023-05-24T08:42:07;101329.66;;;15.09;47.21
32081;BME280;18593;51.426;7.030;2023-05-24T08:44:38;101323.88;;;15.05;47.11
32081;BME280;18593;51.426;7.030;2023-05-24T08:47:07;101318.59;;;14.99;46.92
32081;BME280;18593;51.426;7.030;2023-05-24T08:49:35;101327.28;;;14.94;47.00
32081;BME280;18593;51.426;7.030;2023-05-24T08:52:05;101320.72;;;14.90;47.64
32081;BME280;18593;51.426;7.030;2023-05-24T08:54:35;101317.41;;;14.88;47.84
32081;BME280;18593;51.426;7.030;2023-05-24T08:57:03;101321.13;;;14.87;48.02
32081;BME280;18593;51.426;7.030;2023-05-24T08:59:31;101317.63;;;14.86;48.18
32081;BME280;18593;51.426;7.030;2023-05-24T09:01:59;101319.28;;;14.87;47.43
32081;BME280;18593;51.426;7.030;2023-05-24T09:04:27;101324.00;;;14.92;47.69
32081;BME280;18593;51.426;7.030;2023-05-24T09:06:56;101329.31;;;14.99;47.96
32081;BME280;18593;51.426;7.030;2023-05-24T09:09:27;101323.72;;;15.00;48.15
32081;BME280;18593;51.426;7.030;2023-05-24T09:11:57;101325.75;;;15.05;47.63
32081;BME280;18593;51.426;7.030;2023-05-24T09:14:26;101321.59;;;15.09;49.29
32081;BME280;18593;51.426;7.030;2023-05-24T09:16:54;101318.44;;;15.12;49.67
32081;BME280;18593;51.426;7.030;2023-05-24T09:19:21;101324.44;;;15.14;49.49
32081;BME280;18593;51.426;7.030;2023-05-24T09:21:49;101315.72;;;15.18;49.68
32081;BME280;18593;51.426;7.030;2023-05-24T09:24:18;101327.44;;;15.24;49.57
32081;BME280;18593;51.426;7.030;2023-05-24T09:26:49;101321.03;;;15.25;48.38
32081;BME280;18593;51.426;7.030;2023-05-24T09:29:21;101319.53;;;15.29;48.96
32081;BME280;18593;51.426;7.030;2023-05-24T09:31:49;101313.28;;;15.35;47.74
32081;BME280;18593;51.426;7.030;2023-05-24T09:34:21;101312.19;;;15.43;48.30
32081;BME280;18593;51.426;7.030;2023-05-24T09:36:48;101310.47;;;15.49;46.34
32081;BME280;18593;51.426;7.030;2023-05-24T09:39:18;101308.16;;;15.52;45.52
32081;BME280;18593;51.426;7.030;2023-05-24T09:41:52;101301.50;;;15.55;45.93
32081;BME280;18593;51.426;7.030;2023-05-24T09:44:24;101303.75;;;15.58;45.91
32081;BME280;18593;51.426;7.030;2023-05-24T09:46:51;101309.72;;;15.60;47.48
32081;BME280;18593;51.426;7.030;2023-05-24T09:49:20;101308.06;;;15.59;47.20
32081;BME280;18593;51.426;7.030;2023-05-24T09:51:47;101308.31;;;15.57;45.36
32081;BME280;18593;51.426;7.030;2023-05-24T09:54:14;101305.47;;;15.52;45.12
32081;BME280;18593;51.426;7.030;2023-05-24T09:56:45;101307.53;;;15.50;46.49
32081;BME280;18593;51.426;7.030;2023-05-24T09:59:14;101313.16;;;15.49;46.50
32081;BME280;18593;51.426;7.030;2023-05-24T10:01:41;101299.75;;;15.42;45.62
32081;BME280;18593;51.426;7.030;2023-05-24T10:04:09;101304.31;;;15.41;45.16
32081;BME280;18593;51.426;7.030;2023-05-24T10:06:36;101302.91;;;15.39;45.67
32081;BME280;18593;51.426;7.030;2023-05-24T10:09:05;101303.97;;;15.38;45.17
32081;BME280;18593;51.426;7.030;2023-05-24T10:11:35;101302.91;;;15.39;44.89
32081;BME280;18593;51.426;7.030;2023-05-24T10:14:04;101297.69;;;15.44;44.30
32081;BME280;18593;51.426;7.030;2023-05-24T10:16:33;101299.16;;;15.40;45.23
32081;BME280;18593;51.426;7.030;2023-05-24T10:19:02;101299.41;;;15.38;44.92
32081;BME280;18593;51.426;7.030;2023-05-24T10:21:31;101303.13;;;15.37;45.51
32081;BME280;18593;51.426;7.030;2023-05-24T10:24:01;101304.78;;;15.38;46.11
32081;BME280;18593;51.426;7.030;2023-05-24T10:26:31;101308.13;;;15.34;45.23
32081;BME280;18593;51.426;7.030;2023-05-24T10:29:05;101306.84;;;15.36;46.08
32081;BME280;18593;51.426;7.030;2023-05-24T10:31:39;101310.59;;;15.35;45.13
32081;BME280;18593;51.426;7.030;2023-05-24T10:34:08;101307.31;;;15.33;44.60
32081;BME280;18593;51.426;7.030;2023-05-24T10:36:36;101309.03;;;15.28;44.46
32081;BME280;18593;51.426;7.030;2023-05-24T10:39:08;101302.22;;;15.25;45.30
32081;BME280;18593;51.426;7.030;2023-05-24T10:41:40;101306.38;;;15.21;45.35
32081;BME280;18593;51.426;7.030;2023-05-24T10:44:10;101302.72;;;15.15;44.45
32081;BME280;18593;51.426;7.030;2023-05-24T10:47:08;101304.44;;;15.10;44.79
32081;BME280;18593;51.426;7.030;2023-05-24T10:49:36;101303.44;;;15.04;44.84
32081;BME280;18593;51.426;7.030;2023-05-24T10:52:11;101315.66;;;15.00;45.14
32081;BME280;18593;51.426;7.030;2023-05-24T10:54:38;101316.91;;;14.98;45.05
32081;BME280;18593;51.426;7.030;2023-05-24T10:57:06;101317.56;;;14.93;45.38
32081;BME280;18593;51.426;7.030;2023-05-24T10:59:35;101317.56;;;14.93;46.07
32081;BME280;18593;51.426;7.030;2023-05-24T11:02:07;101317.78;;;14.91;46.11
32081;BME280;18593;51.426;7.030;2023-05-24T11:04:39;101317.78;;;14.91;45.96
32081;BME280;18593;51.426;7.030;2023-05-24T11:07:09;101318.25;;;14.88;45.86
32081;BME280;18593;51.426;7.030;2023-05-24T11:09:37;101315.56;;;14.88;46.05
32081;BME280;18593;51.426;7.030;2023-05-24T11:12:15;101317.63;;;14.86;46.13
32081;BME280;18593;51.426;7.030;2023-05-24T11:14:47;101317.03;;;14.84;45.98
32081;BME280;18593;51.426;7.030;2023-05-24T11:17:21;101319.72;;;14.84;46.28
32081;BME280;18593;51.426;7.030;2023-05-24T11:19:50;101319.34;;;14.81;46.32
32081;BME280;18593;51.426;7.030;2023-05-24T11:22:20;101316.41;;;14.82;46.14
32081;BME280;18593;51.426;7.030;2023-05-24T11:24:47;101315.19;;;14.85;46.31
32081;BME280;18593;51.426;7.030;2023-05-24T11:27:15;101309.16;;;14.89;46.12
32081;BME280;18593;51.426;7.030;2023-05-24T11:29:44;101304.59;;;14.90;45.63
32081;BME280;18593;51.426;7.030;2023-05-24T11:32:16;101303.13;;;14.94;46.79
32081;BME280;18593;51.426;7.030;2023-05-24T11:34:45;101309.91;;;14.97;47.09
32081;BME280;18593;51.426;7.030;2023-05-24T11:37:12;101300.59;;;14.99;46.78
32081;BME280;18593;51.426;7.030;2023-05-24T11:39:40;101304.69;;;15.02;46.73
32081;BME280;18593;51.426;7.030;2023-05-24T11:42:08;101308.00;;;15.04;46.56
32081;BME280;18593;51.426;7.030;2023-05-24T11:44:36;101305.91;;;15.06;47.43
32081;BME280;18593;51.426;7.030;2023-05-24T11:47:07;101298.44;;;15.08;48.04
32081;BME280;18593;51.426;7.030;2023-05-24T11:49:36;101306.06;;;15.11;47.09
32081;BME280;18593;51.426;7.030;2023-05-24T11:52:03;101301.75;;;15.10;46.69
32081;BME280;18593;51.426;7.030;2023-05-24T11:54:31;101298.00;;;15.11;46.96
32081;BME280;18593;51.426;7.030;2023-05-24T11:56:59;101301.31;;;15.13;47.24
32081;BME280;18593;51.426;7.030;2023-05-24T11:59:28;101298.38;;;15.14;46.99
32081;BME280;18593;51.426;7.030;2023-05-24T12:01:57;101296.09;;;15.18;46.42
32081;BME280;18593;51.426;7.030;2023-05-24T12:04:25;101294.22;;;15.18;46.72
32081;BME280;18593;51.426;7.030;2023-05-24T12:06:55;101287.19;;;15.17;46.53
32081;BME280;18593;51.426;7.030;2023-05-24T12:09:23;101291.38;;;15.13;46.33
32081;BME280;18593;51.426;7.030;2023-05-24T12:11:51;101291.16;;;15.15;47.53
32081;BME280;18593;51.426;7.030;2023-05-24T12:14:21;101297.09;;;15.17;48.44
32081;BME280;18593;51.426;7.030;2023-05-24T12:16:54;101293.59;;;15.16;48.56
32081;BME280;18593;51.426;7.030;2023-05-24T12:19:22;101299.59;;;15.18;48.86
32081;BME280;18593;51.426;7.030;2023-05-24T12:21:56;101293.41;;;15.18;48.92
32081;BME280;18593;51.426;7.030;2023-05-24T12:24:25;101291.31;;;15.20;49.54
32081;BME280;18593;51.426;7.030;2023-05-24T12:26:58;101301.00;;;15.21;48.98
32081;BME280;18593;51.426;7.030;2023-05-24T12:29:26;101295.63;;;15.21;48.32
32081;BME280;18593;51.426;7.030;2023-05-24T12:31:53;101302.06;;;15.20;46.84
32081;BME280;18593;51.426;7.030;2023-05-24T12:34:21;101291.16;;;15.15;46.98
32081;BME280;18593;51.426;7.030;2023-05-24T12:36:48;101295.47;;;15.16;47.17
32081;BME280;18593;51.426;7.030;2023-05-24T12:39:18;101293.00;;;15.14;46.92
32081;BME280;18593;51.426;7.030;2023-05-24T12:41:50;101290.09;;;15.16;46.99
32081;BME280;18593;51.426;7.030;2023-05-24T12:44:23;101288.47;;;15.15;46.89
32081;BME280;18593;51.426;7.030;2023-05-24T12:46:52;101297.72;;;15.19;47.45
32081;BME280;18593;51.426;7.030;2023-05-24T12:49:20;101285.94;;;15.20;47.05
32081;BME280;18593;51.426;7.030;2023-05-24T12:51:48;101295.19;;;15.24;47.10
32081;BME280;18593;51.426;7.030;2023-05-24T12:54:21;101300.13;;;15.27;47.25
32081;BME280;18593;51.426;7.030;2023-05-24T12:56:48;101278.75;;;15.32;46.79
32081;BME280;18593;51.426;7.030;2023-05-24T12:59:16;101289.31;;;15.34;46.59
32081;BME280;18593;51.426;7.030;2023-05-24T13:01:43;101287.44;;;15.34;46.77
32081;BME280;18593;51.426;7.030;2023-05-24T13:04:15;101288.03;;;15.36;46.41